createdAt,value
2023-01-02T00:00:22.092Z,63.14
2023-01-02T00:02:49.603Z,63.20
2023-01-02T00:05:17.160Z,63.42
2023-01-02T00:07:44.523Z,63.36
2023-01-02T00:10:11.935Z,62.73
2023-01-02T00:12:40.650Z,62.66
2023-01-02T00:15:08.693Z,62.45
2023-01-02T00:17:36.070Z,61.92
2023-01-02T00:20:03.465Z,62.14
2023-01-02T00:22:30.813Z,62.27
2023-01-02T00:24:58.189Z,62.48
2023-01-02T00:27:25.564Z,62.58
2023-01-02T00:29:54.297Z,62.52
2023-01-02T00:32:21.723Z,62.70
2023-01-02T00:34:49.141Z,62.36
2023-01-02T00:37:16.515Z,62.00
2023-01-02T00:39:43.930Z,62.39
2023-01-02T00:42:11.405Z,61.86
2023-01-02T00:44:38.794Z,61.43
2023-01-02T00:47:07.614Z,61.68
2023-01-02T00:49:35.031Z,61.41
2023-01-02T00:52:02.401Z,61.21
2023-01-02T00:54:29.833Z,61.12
2023-01-02T00:56:57.238Z,60.93
2023-01-02T00:59:24.739Z,60.45
2023-01-02T01:01:52.199Z,60.28
2023-01-02T01:04:21.057Z,60.28
2023-01-02T01:06:48.422Z,60.10
2023-01-02T01:09:15.879Z,60.47
2023-01-02T01:11:43.285Z,60.14
2023-01-02T01:14:10.644Z,59.99
2023-01-02T01:16:38.034Z,60.23
2023-01-02T01:19:05.492Z,60.00
2023-01-02T01:21:34.296Z,59.83
2023-01-02T01:24:01.657Z,60.11
2023-01-02T01:26:29.250Z,60.24
2023-01-02T01:28:57.255Z,60.38
2023-01-02T01:31:25.024Z,60.07
2023-01-02T01:33:52.438Z,60.13
2023-01-02T01:36:21.713Z,60.01
2023-01-02T01:38:50.780Z,60.08
2023-01-02T01:41:20.891Z,59.66
2023-01-02T01:43:50.349Z,59.90
2023-01-02T01:46:24.339Z,59.98
2023-01-02T01:48:58.768Z,59.53
2023-01-02T01:51:28.093Z,59.59
2023-01-02T01:54:07.579Z,59.48
2023-01-02T01:56:37.106Z,58.58
2023-01-02T01:59:04.910Z,58.24
2023-01-02T02:01:33.052Z,58.37
2023-01-02T02:04:00.937Z,58.48
2023-01-02T02:06:29.262Z,58.40
2023-01-02T02:09:02.187Z,58.88
2023-01-02T02:11:29.578Z,59.30
2023-01-02T02:14:00.020Z,59.03
2023-01-02T02:16:37.536Z,59.22
2023-01-02T02:19:25.204Z,59.42
2023-01-02T02:22:20.132Z,59.01
2023-01-02T02:25:07.350Z,59.47
2023-01-02T02:28:00.052Z,59.34
2023-01-02T02:30:35.514Z,59.43
2023-01-02T02:33:21.882Z,59.42
2023-01-02T02:36:00.804Z,59.83
2023-01-02T02:38:45.062Z,59.43
2023-01-02T02:41:23.017Z,59.65
2023-01-02T02:43:59.100Z,59.19
2023-01-02T02:46:36.491Z,59.08
2023-01-02T02:49:09.249Z,58.85
2023-01-02T02:51:42.663Z,59.48
2023-01-02T02:54:15.497Z,59.74
2023-01-02T02:56:44.654Z,59.48
2023-01-02T02:59:13.266Z,59.20
2023-01-02T03:01:42.348Z,59.13
2023-01-02T03:04:20.099Z,59.66
2023-01-02T03:06:59.665Z,59.44
2023-01-02T03:09:39.439Z,59.46
2023-01-02T03:12:19.890Z,59.90
2023-01-02T03:14:57.585Z,59.68
2023-01-02T03:17:34.273Z,59.27
2023-01-02T03:20:07.978Z,59.11
2023-01-02T03:22:40.028Z,59.44
2023-01-02T03:25:10.253Z,59.29
2023-01-02T03:27:42.099Z,60.22
2023-01-02T03:30:16.057Z,59.89
2023-01-02T03:32:49.700Z,60.62
2023-01-02T03:35:22.826Z,60.59
2023-01-02T03:37:55.343Z,60.54
2023-01-02T03:40:27.352Z,59.91
2023-01-02T03:43:00.885Z,59.59
2023-01-02T03:45:31.968Z,60.38
2023-01-02T03:48:08.576Z,59.97
2023-01-02T03:50:42.700Z,60.07
2023-01-02T03:53:10.039Z,59.79
2023-01-02T03:55:41.472Z,59.51
2023-01-02T03:58:16.623Z,59.22
2023-01-02T04:00:49.909Z,59.17
2023-01-02T04:03:23.516Z,59.14
2023-01-02T04:05:58.345Z,59.39
2023-01-02T04:08:29.017Z,58.99
2023-01-02T04:11:00.611Z,58.98
2023-01-02T04:13:33.735Z,58.81
2023-01-02T04:16:02.514Z,58.84
2023-01-02T04:18:40.233Z,59.07
2023-01-02T04:21:16.046Z,58.76
2023-01-02T04:23:49.319Z,58.48
2023-01-02T04:26:22.326Z,59.31
2023-01-02T04:28:50.259Z,59.26
2023-01-02T04:31:20.478Z,59.18
2023-01-02T04:33:54.278Z,59.10
2023-01-02T04:36:22.411Z,58.84
2023-01-02T04:38:50.232Z,58.66
2023-01-02T04:41:26.763Z,58.84
2023-01-02T04:43:54.785Z,58.94
2023-01-02T04:46:22.848Z,59.05
2023-01-02T04:48:51.605Z,58.91
2023-01-02T04:51:19.281Z,59.21
2023-01-02T04:53:48.361Z,59.12
2023-01-02T04:56:15.743Z,59.19
2023-01-02T04:58:43.454Z,59.46
2023-01-02T05:01:11.683Z,59.56
2023-01-02T05:03:40.569Z,59.65
2023-01-02T05:06:09.996Z,60.06
2023-01-02T05:08:38.019Z,60.36
2023-01-02T05:11:09.200Z,60.56
2023-01-02T05:13:36.588Z,61.37
2023-01-02T05:16:04.245Z,60.99
2023-01-02T05:18:32.417Z,61.12
2023-01-02T05:21:04.153Z,61.52
2023-01-02T05:23:50.193Z,61.38
2023-01-02T05:26:18.914Z,61.66
2023-01-02T05:28:46.411Z,61.83
2023-01-02T05:31:13.996Z,61.92
2023-01-02T05:33:41.438Z,62.45
2023-01-02T05:36:09.963Z,62.27
2023-01-02T05:38:39.758Z,62.01
2023-01-02T05:41:08.597Z,62.20
2023-01-02T05:43:37.362Z,62.06
2023-01-02T05:46:09.103Z,62.10
2023-01-02T05:48:36.538Z,61.99
2023-01-02T05:51:04.197Z,62.03
2023-01-02T05:53:32.098Z,62.17
2023-01-02T05:56:06.853Z,61.95
2023-01-02T05:58:34.665Z,61.71
2023-01-02T06:01:09.357Z,61.59
2023-01-02T06:03:37.180Z,61.75
2023-01-02T06:06:06.203Z,61.89
2023-01-02T06:08:33.776Z,62.01
2023-01-02T06:11:01.364Z,62.13
2023-01-02T06:13:30.781Z,61.95
2023-01-02T06:15:58.639Z,61.68
2023-01-02T06:18:26.766Z,62.41
2023-01-02T06:20:58.747Z,62.35
2023-01-02T06:23:26.143Z,62.70
2023-01-02T06:25:53.584Z,62.78
2023-01-02T06:28:20.992Z,62.87
2023-01-02T06:30:49.680Z,63.41
2023-01-02T06:33:17.075Z,63.40
2023-01-02T06:35:44.438Z,63.59
2023-01-02T06:38:11.797Z,63.86
2023-01-02T06:40:39.131Z,63.94
2023-01-02T06:43:06.485Z,64.07
2023-01-02T06:45:34.545Z,64.01
2023-01-02T06:48:03.166Z,63.98
2023-01-02T06:50:34.931Z,64.53
2023-01-02T06:53:02.554Z,64.41
2023-01-02T06:55:29.964Z,64.73
2023-01-02T06:57:57.369Z,64.83
2023-01-02T07:00:24.768Z,65.08
2023-01-02T07:02:52.213Z,65.30
2023-01-02T07:05:24.538Z,65.67
2023-01-02T07:07:52.249Z,65.63
2023-01-02T07:10:19.917Z,65.98
2023-01-02T07:12:47.256Z,66.18
2023-01-02T07:15:14.628Z,66.28
2023-01-02T07:17:41.994Z,66.50
2023-01-02T07:20:10.442Z,66.68
2023-01-02T07:22:39.385Z,66.68
2023-01-02T07:25:07.878Z,67.22
2023-01-02T07:27:35.614Z,67.35
2023-01-02T07:30:02.992Z,67.14
2023-01-02T07:32:30.392Z,67.36
2023-01-02T07:34:57.794Z,67.20
2023-01-02T07:37:25.192Z,67.48
2023-01-02T07:39:54.181Z,67.28
2023-01-02T07:42:21.582Z,67.28
2023-01-02T07:44:48.972Z,67.21
2023-01-02T07:47:16.356Z,66.94
2023-01-02T07:49:43.717Z,67.14
2023-01-02T07:52:11.593Z,67.15
2023-01-02T07:54:39.093Z,67.20
2023-01-02T07:57:08.114Z,67.16
2023-01-02T07:59:35.493Z,66.76
2023-01-02T08:02:03.101Z,66.96
2023-01-02T08:04:30.549Z,66.87
2023-01-02T08:06:58.001Z,66.71
2023-01-02T08:09:25.360Z,66.97
2023-01-02T08:11:52.752Z,67.19
2023-01-02T08:14:23.630Z,67.33
2023-01-02T08:16:51.858Z,67.08
2023-01-02T08:19:19.142Z,67.13
2023-01-02T08:21:46.501Z,67.19
2023-01-02T08:24:13.875Z,67.39
2023-01-02T08:26:41.238Z,67.21
2023-01-02T08:29:09.121Z,67.25
2023-01-02T08:31:43.468Z,66.96
2023-01-02T08:34:14.416Z,66.83
2023-01-02T08:36:41.925Z,66.75
2023-01-02T08:39:09.362Z,66.53
2023-01-02T08:41:38.574Z,66.41
2023-01-02T08:44:06.677Z,66.10
2023-01-02T08:46:40.383Z,66.36
2023-01-02T08:49:11.213Z,66.24
2023-01-02T08:51:38.660Z,66.11
2023-01-02T08:54:06.195Z,66.35
2023-01-02T08:56:35.316Z,66.23
2023-01-02T08:59:05.027Z,66.28
2023-01-02T09:01:33.779Z,66.62
2023-01-02T09:04:06.201Z,66.67
2023-01-02T09:06:40.217Z,66.62
2023-01-02T09:09:11.993Z,66.77
2023-01-02T09:11:43.474Z,66.89
2023-01-02T09:14:10.877Z,66.76
2023-01-02T09:16:38.321Z,66.56
2023-01-02T09:19:05.885Z,66.24
2023-01-02T09:21:33.310Z,66.17
2023-01-02T09:24:02.209Z,66.23
2023-01-02T09:26:29.576Z,66.76
2023-01-02T09:28:57.024Z,66.13
2023-01-02T09:31:24.482Z,66.23
2023-01-02T09:33:54.336Z,65.54
2023-01-02T09:36:22.086Z,66.05
2023-01-02T09:38:53.548Z,65.68
2023-01-02T09:41:41.873Z,65.81
2023-01-02T09:44:15.930Z,65.75
2023-01-02T09:46:50.314Z,65.69
2023-01-02T09:49:21.277Z,65.55
2023-01-02T09:51:49.208Z,65.38
2023-01-02T09:54:24.029Z,65.25
2023-01-02T09:57:01.454Z,65.47
2023-01-02T09:59:34.106Z,65.23
2023-01-02T10:02:12.073Z,64.96
2023-01-02T10:04:50.324Z,65.22
2023-01-02T10:07:24.133Z,65.53
2023-01-02T10:09:56.868Z,65.56
2023-01-02T10:12:33.096Z,65.23
2023-01-02T10:15:03.040Z,65.41
2023-01-02T10:17:37.610Z,65.11
2023-01-02T10:20:22.097Z,65.22
2023-01-02T10:22:54.430Z,65.35
2023-01-02T10:25:27.844Z,65.54
2023-01-02T10:28:03.580Z,65.32
2023-01-02T10:30:37.019Z,64.84
2023-01-02T10:33:12.097Z,64.95
2023-01-02T10:35:43.949Z,65.07
2023-01-02T10:38:13.034Z,64.77
2023-01-02T10:40:42.949Z,64.98
2023-01-02T10:43:12.455Z,64.81
2023-01-02T10:45:40.065Z,64.81
2023-01-02T10:48:08.119Z,65.26
2023-01-02T10:50:39.145Z,64.88
2023-01-02T10:53:08.805Z,64.91
2023-01-02T10:55:39.786Z,65.15
2023-01-02T10:58:13.827Z,65.33
2023-01-02T11:00:42.725Z,65.14
2023-01-02T11:03:16.650Z,64.89
2023-01-02T11:05:47.615Z,64.83
2023-01-02T11:08:17.713Z,65.49
2023-01-02T11:10:45.259Z,65.00
2023-01-02T11:13:14.715Z,64.95
2023-01-02T11:15:51.446Z,65.51
2023-01-02T11:18:23.453Z,65.19
2023-01-02T11:20:53.509Z,65.32
2023-01-02T11:23:25.198Z,65.24
2023-01-02T11:25:54.813Z,65.63
2023-01-02T11:28:25.201Z,65.42
2023-01-02T11:30:56.107Z,65.21
2023-01-02T11:33:29.935Z,65.35
2023-01-02T11:35:59.252Z,65.21
2023-01-02T11:38:29.432Z,65.06
2023-01-02T11:41:01.070Z,65.44
2023-01-02T11:43:49.421Z,65.31
2023-01-02T11:46:33.316Z,65.86
2023-01-02T11:49:05.026Z,65.39
2023-01-02T11:51:35.040Z,65.78
2023-01-02T11:54:05.848Z,65.59
2023-01-02T11:56:36.191Z,65.43
2023-01-02T11:59:07.764Z,65.83
2023-01-02T12:01:47.509Z,65.24
2023-01-02T12:04:15.723Z,65.06
2023-01-02T12:06:57.902Z,64.95
2023-01-02T12:09:33.559Z,64.57
2023-01-02T12:12:24.473Z,64.18
2023-01-02T12:15:11.630Z,64.33
2023-01-02T12:17:47.762Z,64.14
2023-01-02T12:20:36.466Z,64.06
2023-01-02T12:23:17.945Z,63.45
2023-01-02T12:25:57.413Z,63.52
2023-01-02T12:28:46.613Z,63.29
2023-01-02T12:31:32.096Z,62.88
2023-01-02T12:34:12.528Z,63.20
2023-01-02T12:36:54.487Z,62.82
2023-01-02T12:39:50.216Z,62.58
2023-01-02T12:42:31.104Z,62.46
2023-01-02T12:44:59.767Z,62.49
2023-01-02T12:47:54.273Z,62.26
2023-01-02T12:50:48.768Z,62.71
2023-01-02T12:53:29.658Z,62.73
2023-01-02T12:56:08.625Z,62.71
2023-01-02T12:58:54.324Z,62.34
2023-01-02T13:01:30.278Z,62.29
2023-01-02T13:04:04.015Z,62.27
2023-01-02T13:06:46.637Z,62.19
2023-01-02T13:09:22.675Z,62.43
2023-01-02T13:11:57.062Z,62.94
2023-01-02T13:14:27.716Z,62.69
2023-01-02T13:17:02.935Z,62.89
2023-01-02T13:19:38.631Z,62.75
2023-01-02T13:22:19.554Z,62.59
2023-01-02T13:24:47.865Z,62.24
2023-01-02T13:27:15.283Z,62.17
2023-01-02T13:29:45.536Z,62.11
2023-01-02T13:32:14.798Z,62.32
2023-01-02T13:34:52.564Z,62.01
2023-01-02T13:37:25.820Z,62.62
2023-01-02T13:39:55.598Z,62.42
2023-01-02T13:42:44.524Z,62.36
2023-01-02T13:45:16.185Z,62.71
2023-01-02T13:47:49.891Z,63.34
2023-01-02T13:50:23.599Z,63.40
2023-01-02T13:53:05.388Z,63.57
2023-01-02T13:55:34.711Z,64.00
2023-01-02T13:58:25.649Z,64.01
2023-01-02T14:00:56.184Z,63.75
2023-01-02T14:03:37.966Z,63.17
2023-01-02T14:06:26.370Z,63.40
2023-01-02T14:09:14.553Z,63.60
2023-01-02T14:11:55.398Z,63.45
2023-01-02T14:14:33.623Z,63.62
2023-01-02T14:17:15.944Z,63.54
2023-01-02T14:19:44.164Z,63.94
2023-01-02T14:22:14.127Z,63.74
2023-01-02T14:24:45.956Z,63.91
2023-01-02T14:27:23.910Z,64.06
2023-01-02T14:29:54.821Z,64.34
2023-01-02T14:32:25.650Z,64.14
2023-01-02T14:34:56.704Z,64.20
2023-01-02T14:37:30.781Z,64.53
2023-01-02T14:40:10.953Z,64.46
2023-01-02T14:42:57.613Z,64.55
2023-01-02T14:45:28.149Z,64.93
2023-01-02T14:48:01.301Z,65.14
2023-01-02T14:50:33.682Z,64.95
2023-01-02T14:53:06.313Z,65.21
2023-01-02T14:55:42.194Z,65.04
2023-01-02T14:58:18.918Z,65.18
2023-01-02T15:00:48.866Z,65.25
2023-01-02T15:03:27.739Z,65.53
2023-01-02T15:06:00.410Z,64.99
2023-01-02T15:08:38.836Z,64.93
2023-01-02T15:11:45.176Z,65.23
2023-01-02T15:14:19.026Z,65.53
2023-01-02T15:16:54.679Z,65.31
2023-01-02T15:19:26.566Z,65.28
2023-01-02T15:21:54.693Z,65.91
2023-01-02T15:24:24.692Z,65.46
2023-01-02T15:26:53.711Z,65.87
2023-01-02T15:29:26.746Z,66.39
2023-01-02T15:31:56.365Z,66.19
2023-01-02T15:34:30.503Z,66.24
2023-01-02T15:37:01.910Z,65.93
2023-01-02T15:39:34.455Z,66.27
2023-01-02T15:42:10.015Z,66.83
2023-01-02T15:44:57.792Z,66.99
2023-01-02T15:47:28.164Z,66.14
2023-01-02T15:49:57.432Z,65.51
2023-01-02T15:52:27.438Z,65.91
2023-01-02T15:54:55.442Z,65.22
2023-01-02T15:57:26.736Z,65.48
2023-01-02T15:59:54.633Z,65.71
2023-01-02T16:02:40.845Z,66.55
2023-01-02T16:05:11.990Z,66.36
2023-01-02T16:07:40.311Z,66.49
2023-01-02T16:10:09.764Z,66.70
2023-01-02T16:12:38.475Z,66.70
2023-01-02T16:15:08.318Z,66.71
2023-01-02T16:17:38.893Z,66.61
2023-01-02T16:20:16.893Z,66.45
2023-01-02T16:22:47.681Z,66.24
2023-01-02T16:25:18.746Z,66.46
2023-01-02T16:27:54.873Z,67.24
2023-01-02T16:30:32.795Z,66.76
2023-01-02T16:33:02.322Z,66.89
2023-01-02T16:35:31.268Z,66.79
2023-01-02T16:37:59.722Z,66.05
2023-01-02T16:41:00.945Z,66.32
2023-01-02T16:43:30.695Z,66.46
2023-01-02T16:45:59.750Z,66.58
2023-01-02T16:48:29.956Z,66.68
2023-01-02T16:50:59.449Z,66.50
2023-01-02T16:53:29.784Z,66.65
2023-01-02T16:55:57.581Z,67.11
2023-01-02T16:58:26.206Z,66.99
2023-01-02T17:00:56.370Z,67.23
2023-01-02T17:03:26.269Z,67.25
2023-01-02T17:06:02.251Z,67.02
2023-01-02T17:08:30.850Z,66.91
2023-01-02T17:10:58.757Z,66.16
2023-01-02T17:13:26.634Z,66.23
2023-01-02T17:15:55.625Z,65.00
2023-01-02T17:18:23.669Z,64.59
2023-01-02T17:20:50.947Z,63.44
2023-01-02T17:23:20.009Z,62.71
2023-01-02T17:25:48.213Z,61.35
2023-01-02T17:28:16.339Z,60.89
2023-01-02T17:30:44.878Z,60.17
2023-01-02T17:33:13.813Z,59.71
2023-01-02T17:35:41.318Z,59.53
2023-01-02T17:38:09.093Z,59.42
2023-01-02T17:40:38.643Z,60.36
2023-01-02T17:43:06.488Z,60.98
2023-01-02T17:45:33.925Z,62.03
2023-01-02T17:48:10.072Z,62.76
2023-01-02T17:50:40.135Z,63.50
2023-01-02T17:53:08.208Z,63.87
2023-01-02T17:55:35.736Z,63.64
2023-01-02T17:58:03.152Z,63.86
2023-01-02T18:00:30.555Z,65.15
2023-01-02T18:02:58.033Z,65.49
2023-01-02T18:05:25.407Z,64.91
2023-01-02T18:07:54.104Z,65.51
2023-01-02T18:10:23.704Z,64.58
2023-01-02T18:12:53.451Z,65.21
2023-01-02T18:15:22.982Z,64.87
2023-01-02T18:17:50.434Z,64.70
2023-01-02T18:20:20.551Z,64.04
2023-01-02T18:22:50.592Z,63.41
2023-01-02T18:25:24.087Z,63.16
2023-01-02T18:27:51.799Z,62.18
2023-01-02T18:30:21.255Z,61.89
2023-01-02T18:32:50.090Z,61.34
2023-01-02T18:38:18.981Z,61.38
2023-01-02T18:40:47.674Z,60.43
2023-01-02T18:43:21.627Z,59.83
2023-01-02T18:45:51.700Z,59.09
2023-01-02T18:48:20.941Z,57.91
2023-01-02T18:51:01.477Z,57.26
2023-01-02T18:53:35.625Z,56.94
2023-01-02T18:56:13.309Z,56.78
2023-01-02T18:58:43.457Z,56.65
2023-01-02T19:01:26.112Z,56.75
2023-01-02T19:03:58.167Z,57.13
2023-01-02T19:06:27.288Z,56.88
2023-01-02T19:09:03.364Z,57.17
2023-01-02T19:11:52.510Z,57.50
2023-01-02T19:14:23.373Z,57.11
2023-01-02T19:17:10.236Z,56.97
2023-01-02T19:19:40.727Z,57.73
2023-01-02T19:22:13.837Z,58.06
2023-01-02T19:24:41.247Z,58.20
2023-01-02T19:27:26.064Z,58.33
2023-01-02T19:29:54.688Z,57.90
2023-01-02T19:32:30.595Z,58.12
2023-01-02T19:35:00.696Z,57.86
2023-01-02T19:37:38.791Z,58.07
2023-01-02T19:40:16.691Z,58.04
2023-01-02T19:42:49.068Z,58.02
2023-01-02T19:45:18.833Z,57.53
2023-01-02T19:47:47.325Z,57.51
2023-01-02T19:50:19.224Z,57.54
2023-01-02T19:52:46.680Z,57.68
2023-01-02T19:55:14.882Z,58.12
2023-01-02T19:57:42.677Z,57.84
2023-01-02T20:00:14.646Z,58.24
2023-01-02T20:02:45.238Z,58.27
2023-01-02T20:05:20.766Z,58.46
2023-01-02T20:07:49.925Z,58.49
2023-01-02T20:10:17.881Z,58.76
2023-01-02T20:12:44.906Z,58.93
2023-01-02T20:15:17.161Z,58.82
2023-01-02T20:17:45.998Z,61.01
2023-01-02T20:20:15.595Z,62.05
2023-01-02T20:22:43.729Z,63.21
2023-01-02T20:25:11.791Z,67.25
2023-01-02T20:27:39.153Z,69.20
2023-01-02T20:30:08.680Z,72.21
2023-01-02T20:32:39.457Z,74.47
2023-01-02T20:35:07.422Z,76.72
2023-01-02T20:37:34.900Z,79.83
2023-01-02T20:40:02.346Z,83.09
2023-01-02T20:42:29.786Z,84.28
2023-01-02T20:44:57.152Z,85.24
2023-01-02T20:47:24.550Z,86.76
2023-01-02T20:49:53.372Z,87.93
2023-01-02T20:52:21.266Z,88.81
2023-01-02T20:57:17.039Z,90.63
2023-01-02T20:59:44.525Z,91.55
2023-01-02T21:02:12.099Z,91.68
2023-01-02T21:04:39.591Z,93.17
2023-01-02T21:07:08.356Z,93.53
2023-01-02T21:09:35.780Z,93.92
2023-01-02T21:12:03.190Z,95.13
2023-01-02T21:14:37.078Z,95.02
2023-01-02T21:17:04.970Z,95.59
2023-01-02T21:19:32.335Z,96.24
2023-01-02T21:21:59.752Z,97.87
2023-01-02T21:24:28.479Z,97.31
2023-01-02T21:26:55.833Z,96.11
2023-01-02T21:29:23.243Z,96.22
2023-01-02T21:31:50.648Z,95.90
2023-01-02T21:34:18.118Z,96.23
2023-01-02T21:36:45.505Z,95.31
2023-01-02T21:39:12.908Z,95.44
2023-01-02T21:41:59.210Z,95.27
2023-01-02T21:44:26.615Z,94.06
2023-01-02T21:46:54.041Z,94.02
2023-01-02T21:49:21.912Z,93.63
2023-01-02T21:51:49.283Z,94.38
2023-01-02T21:54:16.661Z,95.29
2023-01-02T21:56:45.358Z,95.27
2023-01-02T21:59:12.732Z,94.55
2023-01-02T22:01:43.665Z,95.51
2023-01-02T22:04:11.173Z,95.95
2023-01-02T22:07:04.268Z,95.48
2023-01-02T22:09:28.012Z,94.44
2023-01-02T22:11:56.725Z,94.70
2023-01-02T22:14:26.763Z,94.52
2023-01-02T22:16:54.912Z,94.05
2023-01-02T22:19:22.867Z,93.91
2023-01-02T22:21:50.740Z,94.54
2023-01-02T22:24:19.029Z,93.70
2023-01-02T22:26:48.281Z,92.84
2023-01-02T22:29:17.823Z,92.75
2023-01-02T22:31:45.571Z,92.50
2023-01-02T22:34:13.149Z,90.73
2023-01-02T22:36:40.567Z,89.48
2023-01-02T22:39:27.524Z,89.36
2023-01-02T22:42:57.756Z,91.12
2023-01-02T22:45:15.247Z,91.50
2023-01-02T22:47:42.782Z,91.94
2023-01-02T22:50:18.413Z,92.16
2023-01-02T22:52:46.039Z,93.05
2023-01-02T22:55:17.125Z,92.95
2023-01-02T22:57:51.099Z,93.20
2023-01-02T23:00:23.065Z,94.01
2023-01-02T23:02:51.086Z,93.23
2023-01-02T23:05:19.174Z,94.75
2023-01-02T23:07:49.456Z,93.61
2023-01-02T23:10:17.403Z,92.14
2023-01-02T23:12:44.975Z,91.76
2023-01-02T23:15:14.893Z,91.59
2023-01-02T23:18:06.375Z,89.96
2023-01-02T23:20:34.244Z,89.45
2023-01-02T23:23:01.722Z,90.25
2023-01-02T23:25:29.102Z,89.48
2023-01-02T23:27:56.584Z,88.28
2023-01-02T23:30:23.977Z,87.55
2023-01-02T23:32:52.664Z,87.50
2023-01-02T23:35:20.071Z,87.93
2023-01-02T23:37:47.440Z,88.08
2023-01-02T23:40:14.803Z,87.68
2023-01-02T23:42:42.198Z,88.41
2023-01-02T23:45:10.373Z,87.79
2023-01-02T23:47:37.760Z,87.86
2023-01-02T23:50:07.301Z,87.27
2023-01-02T23:52:34.702Z,87.05
2023-01-02T23:55:02.108Z,87.89
2023-01-02T23:57:29.495Z,87.61
2023-01-02T23:59:56.875Z,87.91
